sensor_id;sensor_type;location;lat;lon;timestamp;temperature;humidity
20442;DHT22;10380;52.102;20.614;2022-12-07T00:01:39;3.00;99.90
20442;DHT22;10380;52.102;20.614;2022-12-07T00:04:10;3.00;99.90
20442;DHT22;10380;52.102;20.614;2022-12-07T00:06:40;3.10;99.90
20442;DHT22;10380;52.102;20.614;2022-12-07T00:09:11;3.10;99.90
20442;DHT22;10380;52.102;20.614;2022-12-07T00:11:38;3.20;99.90
20442;DHT22;10380;52.102;20.614;2022-12-07T00:14:09;3.20;99.90
20442;DHT22;10380;52.102;20.614;2022-12-07T00:16:37;3.20;99.90
20442;DHT22;10380;52.102;20.614;2022-12-07T00:19:05;3.90;99.90
20442;DHT22;10380;52.102;20.614;2022-12-07T00:21:34;3.60;99.90
20442;DHT22;10380;52.102;20.614;2022-12-07T00:24:03;3.20;99.90
20442;DHT22;10380;52.102;20.614;2022-12-07T00:26:38;3.20;99.90
20442;DHT22;10380;52.102;20.614;2022-12-07T00:29:11;3.20;99.90
20442;DHT22;10380;52.102;20.614;2022-12-07T00:31:39;3.20;99.90
20442;DHT22;10380;52.102;20.614;2022-12-07T00:34:11;3.20;99.90
20442;DHT22;10380;52.102;20.614;2022-12-07T00:36:39;3.20;99.90
20442;DHT22;10380;52.102;20.614;2022-12-07T00:39:06;3.30;99.90
20442;DHT22;10380;52.102;20.614;2022-12-07T00:41:34;3.30;99.90
20442;DHT22;10380;52.102;20.614;2022-12-07T00:44:01;3.30;99.90
20442;DHT22;10380;52.102;20.614;2022-12-07T00:46:29;3.30;99.90
20442;DHT22;10380;52.102;20.614;2022-12-07T00:48:56;3.30;99.90
20442;DHT22;10380;52.102;20.614;2022-12-07T00:51:25;3.20;99.90
20442;DHT22;10380;52.102;20.614;2022-12-07T00:53:52;3.20;99.90
20442;DHT22;10380;52.102;20.614;2022-12-07T00:56:26;3.20;99.90
20442;DHT22;10380;52.102;20.614;2022-12-07T00:58:59;3.20;99.90
20442;DHT22;10380;52.102;20.614;2022-12-07T01:01:29;3.20;99.90
20442;DHT22;10380;52.102;20.614;2022-12-07T01:03:56;3.20;99.90
20442;DHT22;10380;52.102;20.614;2022-12-07T01:06:24;3.20;99.90
20442;DHT22;10380;52.102;20.614;2022-12-07T01:08:52;3.20;99.90
20442;DHT22;10380;52.102;20.614;2022-12-07T01:11:25;3.20;99.90
20442;DHT22;10380;52.102;20.614;2022-12-07T01:13:54;3.20;99.90
20442;DHT22;10380;52.102;20.614;2022-12-07T01:16:23;3.20;99.90
20442;DHT22;10380;52.102;20.614;2022-12-07T01:18:52;3.20;99.90
20442;DHT22;10380;52.102;20.614;2022-12-07T01:21:25;3.20;99.90
20442;DHT22;10380;52.102;20.614;2022-12-07T01:23:52;3.20;99.90
20442;DHT22;10380;52.102;20.614;2022-12-07T01:26:21;3.20;99.90
20442;DHT22;10380;52.102;20.614;2022-12-07T01:28:50;3.20;99.90
20442;DHT22;10380;52.102;20.614;2022-12-07T01:31:20;3.10;99.90
20442;DHT22;10380;52.102;20.614;2022-12-07T01:33:51;3.10;99.90
20442;DHT22;10380;52.102;20.614;2022-12-07T01:36:21;3.10;99.90
20442;DHT22;10380;52.102;20.614;2022-12-07T01:38:51;3.20;99.90
20442;DHT22;10380;52.102;20.614;2022-12-07T01:41:20;3.20;99.90
20442;DHT22;10380;52.102;20.614;2022-12-07T01:46:38;3.10;99.90
20442;DHT22;10380;52.102;20.614;2022-12-07T01:49:10;3.10;99.90
20442;DHT22;10380;52.102;20.614;2022-12-07T01:51:40;3.10;99.90
20442;DHT22;10380;52.102;20.614;2022-12-07T01:54:10;3.10;99.90
20442;DHT22;10380;52.102;20.614;2022-12-07T01:56:40;3.10;99.90
20442;DHT22;10380;52.102;20.614;2022-12-07T02:01:52;3.00;99.90
20442;DHT22;10380;52.102;20.614;2022-12-07T02:04:21;3.00;99.90
20442;DHT22;10380;52.102;20.614;2022-12-07T02:06:50;3.00;99.90
20442;DHT22;10380;52.102;20.614;2022-12-07T02:09:20;3.00;99.90
20442;DHT22;10380;52.102;20.614;2022-12-07T02:11:47;3.00;99.90
20442;DHT22;10380;52.102;20.614;2022-12-07T02:14:14;2.90;99.90
20442;DHT22;10380;52.102;20.614;2022-12-07T02:16:51;2.90;99.90
20442;DHT22;10380;52.102;20.614;2022-12-07T02:27:52;2.80;99.90
20442;DHT22;10380;52.102;20.614;2022-12-07T02:30:28;2.70;99.90
20442;DHT22;10380;52.102;20.614;2022-12-07T02:38:26;2.80;99.90
20442;DHT22;10380;52.102;20.614;2022-12-07T02:44:14;2.70;99.90
20442;DHT22;10380;52.102;20.614;2022-12-07T02:46:57;2.70;99.90
20442;DHT22;10380;52.102;20.614;2022-12-07T02:49:25;2.70;99.90
20442;DHT22;10380;52.102;20.614;2022-12-07T02:51:54;2.60;99.90
20442;DHT22;10380;52.102;20.614;2022-12-07T02:54:24;2.60;99.90
20442;DHT22;10380;52.102;20.614;2022-12-07T03:00:14;2.60;99.90
20442;DHT22;10380;52.102;20.614;2022-12-07T03:03:04;2.60;99.90
20442;DHT22;10380;52.102;20.614;2022-12-07T03:10:58;2.50;99.90
20442;DHT22;10380;52.102;20.614;2022-12-07T03:13:54;2.60;99.90
20442;DHT22;10380;52.102;20.614;2022-12-07T03:16:33;2.50;99.90
20442;DHT22;10380;52.102;20.614;2022-12-07T03:19:16;2.50;99.90
20442;DHT22;10380;52.102;20.614;2022-12-07T03:21:51;2.40;99.90
20442;DHT22;10380;52.102;20.614;2022-12-07T03:24:23;2.40;99.90
20442;DHT22;10380;52.102;20.614;2022-12-07T03:26:59;2.40;99.90
20442;DHT22;10380;52.102;20.614;2022-12-07T03:29:34;2.40;99.90
20442;DHT22;10380;52.102;20.614;2022-12-07T03:32:23;2.40;99.90
20442;DHT22;10380;52.102;20.614;2022-12-07T03:37:43;2.30;99.90
20442;DHT22;10380;52.102;20.614;2022-12-07T03:40:22;2.30;99.90
20442;DHT22;10380;52.102;20.614;2022-12-07T03:42:51;2.30;99.90
20442;DHT22;10380;52.102;20.614;2022-12-07T03:45:25;2.30;99.90
20442;DHT22;10380;52.102;20.614;2022-12-07T03:48:02;2.30;99.90
20442;DHT22;10380;52.102;20.614;2022-12-07T03:50:59;2.30;99.90
20442;DHT22;10380;52.102;20.614;2022-12-07T03:53:43;2.80;99.90
20442;DHT22;10380;52.102;20.614;2022-12-07T03:56:14;2.30;99.90
20442;DHT22;10380;52.102;20.614;2022-12-07T03:58:42;2.30;99.90
20442;DHT22;10380;52.102;20.614;2022-12-07T04:01:10;2.20;99.90
20442;DHT22;10380;52.102;20.614;2022-12-07T04:03:38;2.20;99.90
20442;DHT22;10380;52.102;20.614;2022-12-07T04:06:06;2.20;99.90
20442;DHT22;10380;52.102;20.614;2022-12-07T04:08:33;2.20;99.90
20442;DHT22;10380;52.102;20.614;2022-12-07T04:11:00;2.20;99.90
20442;DHT22;10380;52.102;20.614;2022-12-07T04:13:27;2.60;99.90
20442;DHT22;10380;52.102;20.614;2022-12-07T04:15:54;2.20;99.90
20442;DHT22;10380;52.102;20.614;2022-12-07T04:18:21;2.20;99.90
20442;DHT22;10380;52.102;20.614;2022-12-07T04:20:48;2.20;99.90
20442;DHT22;10380;52.102;20.614;2022-12-07T04:23:15;2.20;99.90
20442;DHT22;10380;52.102;20.614;2022-12-07T04:25:43;2.20;99.90
20442;DHT22;10380;52.102;20.614;2022-12-07T04:28:10;2.10;99.90
20442;DHT22;10380;52.102;20.614;2022-12-07T04:30:38;2.10;99.90
20442;DHT22;10380;52.102;20.614;2022-12-07T04:33:05;2.10;99.90
20442;DHT22;10380;52.102;20.614;2022-12-07T04:35:32;2.20;99.90
20442;DHT22;10380;52.102;20.614;2022-12-07T04:37:59;2.10;99.90
20442;DHT22;10380;52.102;20.614;2022-12-07T04:40:26;2.10;99.90
20442;DHT22;10380;52.102;20.614;2022-12-07T04:42:54;2.10;99.90
20442;DHT22;10380;52.102;20.614;2022-12-07T04:45:21;2.10;99.90
20442;DHT22;10380;52.102;20.614;2022-12-07T04:47:48;2.00;99.90
20442;DHT22;10380;52.102;20.614;2022-12-07T04:50:15;2.00;99.90
20442;DHT22;10380;52.102;20.614;2022-12-07T04:52:42;2.00;99.90
20442;DHT22;10380;52.102;20.614;2022-12-07T04:55:09;2.00;99.90
20442;DHT22;10380;52.102;20.614;2022-12-07T04:57:36;1.90;99.90
20442;DHT22;10380;52.102;20.614;2022-12-07T05:00:03;1.90;99.90
20442;DHT22;10380;52.102;20.614;2022-12-07T05:02:31;1.90;99.90
20442;DHT22;10380;52.102;20.614;2022-12-07T05:04:58;1.90;99.90
20442;DHT22;10380;52.102;20.614;2022-12-07T05:07:25;1.90;99.90
20442;DHT22;10380;52.102;20.614;2022-12-07T05:09:52;1.90;99.90
20442;DHT22;10380;52.102;20.614;2022-12-07T05:12:19;1.90;99.90
20442;DHT22;10380;52.102;20.614;2022-12-07T05:14:46;1.90;99.90
20442;DHT22;10380;52.102;20.614;2022-12-07T05:17:13;1.90;99.90
20442;DHT22;10380;52.102;20.614;2022-12-07T05:19:40;1.90;99.90
20442;DHT22;10380;52.102;20.614;2022-12-07T05:22:07;1.80;99.90
20442;DHT22;10380;52.102;20.614;2022-12-07T05:24:37;1.80;99.90
20442;DHT22;10380;52.102;20.614;2022-12-07T05:27:03;1.80;99.90
20442;DHT22;10380;52.102;20.614;2022-12-07T05:29:32;1.80;99.90
20442;DHT22;10380;52.102;20.614;2022-12-07T05:32:00;1.70;99.90
20442;DHT22;10380;52.102;20.614;2022-12-07T05:34:27;1.80;99.90
20442;DHT22;10380;52.102;20.614;2022-12-07T05:36:54;1.70;99.90
20442;DHT22;10380;52.102;20.614;2022-12-07T05:39:20;1.70;99.90
20442;DHT22;10380;52.102;20.614;2022-12-07T05:41:47;1.60;99.90
20442;DHT22;10380;52.102;20.614;2022-12-07T05:44:33;1.60;99.90
20442;DHT22;10380;52.102;20.614;2022-12-07T05:47:00;1.60;99.90
20442;DHT22;10380;52.102;20.614;2022-12-07T05:49:28;1.60;99.90
20442;DHT22;10380;52.102;20.614;2022-12-07T05:51:55;1.60;99.90
20442;DHT22;10380;52.102;20.614;2022-12-07T05:54:22;1.60;99.90
20442;DHT22;10380;52.102;20.614;2022-12-07T05:56:50;1.60;99.90
20442;DHT22;10380;52.102;20.614;2022-12-07T05:59:17;1.60;99.90
20442;DHT22;10380;52.102;20.614;2022-12-07T06:01:58;1.60;99.90
20442;DHT22;10380;52.102;20.614;2022-12-07T06:04:28;1.60;99.90
20442;DHT22;10380;52.102;20.614;2022-12-07T06:06:55;1.50;99.90
20442;DHT22;10380;52.102;20.614;2022-12-07T06:09:25;1.50;99.90
20442;DHT22;10380;52.102;20.614;2022-12-07T06:11:52;1.50;99.90
20442;DHT22;10380;52.102;20.614;2022-12-07T06:14:38;1.50;99.90
20442;DHT22;10380;52.102;20.614;2022-12-07T06:17:07;1.50;99.90
20442;DHT22;10380;52.102;20.614;2022-12-07T06:19:34;1.50;99.90
20442;DHT22;10380;52.102;20.614;2022-12-07T06:22:02;1.50;99.90
20442;DHT22;10380;52.102;20.614;2022-12-07T06:24:32;1.50;99.90
20442;DHT22;10380;52.102;20.614;2022-12-07T06:26:59;1.50;99.90
20442;DHT22;10380;52.102;20.614;2022-12-07T06:29:26;1.50;99.90
20442;DHT22;10380;52.102;20.614;2022-12-07T06:31:53;1.50;99.90
20442;DHT22;10380;52.102;20.614;2022-12-07T06:34:21;1.50;99.90
20442;DHT22;10380;52.102;20.614;2022-12-07T06:36:51;1.50;99.90
20442;DHT22;10380;52.102;20.614;2022-12-07T06:39:21;1.50;99.90
20442;DHT22;10380;52.102;20.614;2022-12-07T06:41:48;1.40;99.90
20442;DHT22;10380;52.102;20.614;2022-12-07T06:44:15;1.50;99.90
20442;DHT22;10380;52.102;20.614;2022-12-07T06:46:42;1.50;99.90
20442;DHT22;10380;52.102;20.614;2022-12-07T06:49:09;1.50;99.90
20442;DHT22;10380;52.102;20.614;2022-12-07T06:51:35;1.50;99.90
20442;DHT22;10380;52.102;20.614;2022-12-07T06:54:03;1.50;99.90
20442;DHT22;10380;52.102;20.614;2022-12-07T06:56:31;1.50;99.90
20442;DHT22;10380;52.102;20.614;2022-12-07T06:58:59;1.50;99.90
20442;DHT22;10380;52.102;20.614;2022-12-07T07:01:26;1.50;99.90
20442;DHT22;10380;52.102;20.614;2022-12-07T07:03:53;1.50;99.90
20442;DHT22;10380;52.102;20.614;2022-12-07T07:06:21;1.50;99.90
20442;DHT22;10380;52.102;20.614;2022-12-07T07:08:48;1.50;99.90
20442;DHT22;10380;52.102;20.614;2022-12-07T07:11:16;1.50;99.90
20442;DHT22;10380;52.102;20.614;2022-12-07T07:13:44;1.50;99.90
20442;DHT22;10380;52.102;20.614;2022-12-07T07:16:12;1.50;99.90
20442;DHT22;10380;52.102;20.614;2022-12-07T07:18:39;1.50;99.90
20442;DHT22;10380;52.102;20.614;2022-12-07T07:21:06;1.50;99.90
20442;DHT22;10380;52.102;20.614;2022-12-07T07:23:33;1.50;99.90
20442;DHT22;10380;52.102;20.614;2022-12-07T07:26:00;1.50;99.90
20442;DHT22;10380;52.102;20.614;2022-12-07T07:28:26;1.50;99.90
20442;DHT22;10380;52.102;20.614;2022-12-07T07:30:53;1.60;99.90
20442;DHT22;10380;52.102;20.614;2022-12-07T07:33:20;1.60;99.90
20442;DHT22;10380;52.102;20.614;2022-12-07T07:35:47;1.60;99.90
20442;DHT22;10380;52.102;20.614;2022-12-07T07:38:14;1.70;99.90
20442;DHT22;10380;52.102;20.614;2022-12-07T07:40:41;1.70;99.90
20442;DHT22;10380;52.102;20.614;2022-12-07T07:43:08;1.70;99.90
20442;DHT22;10380;52.102;20.614;2022-12-07T07:45:36;1.70;99.90
20442;DHT22;10380;52.102;20.614;2022-12-07T07:48:03;1.70;99.90
20442;DHT22;10380;52.102;20.614;2022-12-07T07:50:30;1.80;99.90
20442;DHT22;10380;52.102;20.614;2022-12-07T07:52:57;1.80;99.90
20442;DHT22;10380;52.102;20.614;2022-12-07T07:55:24;1.80;99.90
20442;DHT22;10380;52.102;20.614;2022-12-07T07:57:51;1.90;99.90
20442;DHT22;10380;52.102;20.614;2022-12-07T08:00:21;1.90;99.90
20442;DHT22;10380;52.102;20.614;2022-12-07T08:02:48;1.90;99.90
20442;DHT22;10380;52.102;20.614;2022-12-07T08:05:15;2.00;99.90
20442;DHT22;10380;52.102;20.614;2022-12-07T08:07:43;2.00;99.90
20442;DHT22;10380;52.102;20.614;2022-12-07T08:10:12;2.10;99.90
20442;DHT22;10380;52.102;20.614;2022-12-07T08:12:41;2.10;99.90
20442;DHT22;10380;52.102;20.614;2022-12-07T08:15:28;2.10;99.90
20442;DHT22;10380;52.102;20.614;2022-12-07T08:17:56;2.20;99.90
20442;DHT22;10380;52.102;20.614;2022-12-07T08:20:24;2.30;99.90
20442;DHT22;10380;52.102;20.614;2022-12-07T08:22:50;2.30;99.90
20442;DHT22;10380;52.102;20.614;2022-12-07T08:25:18;2.40;99.90
20442;DHT22;10380;52.102;20.614;2022-12-07T08:27:46;2.50;99.90
20442;DHT22;10380;52.102;20.614;2022-12-07T08:30:13;2.40;99.90
20442;DHT22;10380;52.102;20.614;2022-12-07T08:32:40;2.50;99.90
20442;DHT22;10380;52.102;20.614;2022-12-07T08:35:07;2.60;99.90
20442;DHT22;10380;52.102;20.614;2022-12-07T08:37:35;2.60;99.90
20442;DHT22;10380;52.102;20.614;2022-12-07T08:40:03;2.60;99.90
20442;DHT22;10380;52.102;20.614;2022-12-07T08:42:31;2.70;99.90
20442;DHT22;10380;52.102;20.614;2022-12-07T08:45:12;2.70;99.90
20442;DHT22;10380;52.102;20.614;2022-12-07T08:47:43;2.80;99.90
20442;DHT22;10380;52.102;20.614;2022-12-07T08:50:12;2.80;99.90
20442;DHT22;10380;52.102;20.614;2022-12-07T08:52:40;2.80;99.90
20442;DHT22;10380;52.102;20.614;2022-12-07T08:55:10;2.80;99.90
20442;DHT22;10380;52.102;20.614;2022-12-07T08:57:38;2.80;99.90
20442;DHT22;10380;52.102;20.614;2022-12-07T09:00:06;2.90;99.90
20442;DHT22;10380;52.102;20.614;2022-12-07T09:02:33;2.90;99.90
20442;DHT22;10380;52.102;20.614;2022-12-07T09:05:00;2.90;99.90
20442;DHT22;10380;52.102;20.614;2022-12-07T09:07:27;3.40;99.90
20442;DHT22;10380;52.102;20.614;2022-12-07T09:09:55;3.00;99.90
20442;DHT22;10380;52.102;20.614;2022-12-07T09:12:23;2.90;99.90
20442;DHT22;10380;52.102;20.614;2022-12-07T09:14:50;3.00;99.90
20442;DHT22;10380;52.102;20.614;2022-12-07T09:17:17;3.00;99.90
20442;DHT22;10380;52.102;20.614;2022-12-07T09:19:43;3.00;99.90
20442;DHT22;10380;52.102;20.614;2022-12-07T09:22:10;3.10;99.90
20442;DHT22;10380;52.102;20.614;2022-12-07T09:24:37;3.10;99.90
20442;DHT22;10380;52.102;20.614;2022-12-07T09:27:05;3.10;99.90
20442;DHT22;10380;52.102;20.614;2022-12-07T09:29:33;3.10;99.90
20442;DHT22;10380;52.102;20.614;2022-12-07T09:31:59;3.10;99.90
20442;DHT22;10380;52.102;20.614;2022-12-07T09:34:32;3.10;99.90
20442;DHT22;10380;52.102;20.614;2022-12-07T09:37:01;3.20;99.90
20442;DHT22;10380;52.102;20.614;2022-12-07T09:39:29;3.20;99.90
20442;DHT22;10380;52.102;20.614;2022-12-07T09:41:57;3.20;99.90
20442;DHT22;10380;52.102;20.614;2022-12-07T09:44:26;3.20;99.90
20442;DHT22;10380;52.102;20.614;2022-12-07T09:46:54;3.40;99.90
20442;DHT22;10380;52.102;20.614;2022-12-07T09:49:24;3.30;99.90
20442;DHT22;10380;52.102;20.614;2022-12-07T09:54:40;3.40;99.90
20442;DHT22;10380;52.102;20.614;2022-12-07T09:57:09;3.40;99.90
20442;DHT22;10380;52.102;20.614;2022-12-07T09:59:37;3.40;99.90
20442;DHT22;10380;52.102;20.614;2022-12-07T10:02:34;3.40;99.90
20442;DHT22;10380;52.102;20.614;2022-12-07T10:05:04;3.50;99.90
20442;DHT22;10380;52.102;20.614;2022-12-07T10:07:32;3.40;99.90
20442;DHT22;10380;52.102;20.614;2022-12-07T10:10:03;3.40;99.90
20442;DHT22;10380;52.102;20.614;2022-12-07T10:12:30;3.40;99.90
20442;DHT22;10380;52.102;20.614;2022-12-07T10:15:02;3.40;99.90
20442;DHT22;10380;52.102;20.614;2022-12-07T10:17:50;3.40;99.90
20442;DHT22;10380;52.102;20.614;2022-12-07T10:20:24;3.40;99.90
20442;DHT22;10380;52.102;20.614;2022-12-07T10:25:32;3.40;99.90
20442;DHT22;10380;52.102;20.614;2022-12-07T10:28:02;3.40;99.90
20442;DHT22;10380;52.102;20.614;2022-12-07T10:30:30;3.50;99.90
20442;DHT22;10380;52.102;20.614;2022-12-07T10:32:58;3.50;99.90
20442;DHT22;10380;52.102;20.614;2022-12-07T10:35:27;3.80;99.90
20442;DHT22;10380;52.102;20.614;2022-12-07T10:37:56;3.60;99.90
20442;DHT22;10380;52.102;20.614;2022-12-07T10:40:26;3.70;99.90
20442;DHT22;10380;52.102;20.614;2022-12-07T10:51:43;3.60;99.90
20442;DHT22;10380;52.102;20.614;2022-12-07T11:00:06;3.60;99.90
20442;DHT22;10380;52.102;20.614;2022-12-07T11:08:09;3.60;99.90
20442;DHT22;10380;52.102;20.614;2022-12-07T11:16:23;3.50;99.90
20442;DHT22;10380;52.102;20.614;2022-12-07T11:21:56;3.40;99.90
20442;DHT22;10380;52.102;20.614;2022-12-07T11:24:29;3.50;99.90
20442;DHT22;10380;52.102;20.614;2022-12-07T11:27:41;3.40;99.90
20442;DHT22;10380;52.102;20.614;2022-12-07T11:30:18;3.50;99.90
20442;DHT22;10380;52.102;20.614;2022-12-07T11:38:28;3.40;99.90
20442;DHT22;10380;52.102;20.614;2022-12-07T11:41:02;3.40;99.90
20442;DHT22;10380;52.102;20.614;2022-12-07T11:46:26;3.40;99.90
20442;DHT22;10380;52.102;20.614;2022-12-07T11:49:21;3.30;99.90
20442;DHT22;10380;52.102;20.614;2022-12-07T11:51:53;3.30;99.90
20442;DHT22;10380;52.102;20.614;2022-12-07T11:54:28;3.20;99.90
20442;DHT22;10380;52.102;20.614;2022-12-07T11:57:01;3.20;99.90
20442;DHT22;10380;52.102;20.614;2022-12-07T11:59:36;3.20;99.90
20442;DHT22;10380;52.102;20.614;2022-12-07T12:02:19;3.20;99.90
20442;DHT22;10380;52.102;20.614;2022-12-07T12:07:31;3.20;99.90
20442;DHT22;10380;52.102;20.614;2022-12-07T12:10:37;3.20;99.90
20442;DHT22;10380;52.102;20.614;2022-12-07T12:13:21;3.20;99.90
20442;DHT22;10380;52.102;20.614;2022-12-07T12:22:18;3.30;99.90
20442;DHT22;10380;52.102;20.614;2022-12-07T12:24:50;3.30;99.90
20442;DHT22;10380;52.102;20.614;2022-12-07T12:27:26;3.20;99.90
20442;DHT22;10380;52.102;20.614;2022-12-07T12:30:01;3.20;99.90
20442;DHT22;10380;52.102;20.614;2022-12-07T12:32:42;3.10;99.90
20442;DHT22;10380;52.102;20.614;2022-12-07T12:40:51;3.20;99.90
20442;DHT22;10380;52.102;20.614;2022-12-07T12:43:50;3.10;99.90
20442;DHT22;10380;52.102;20.614;2022-12-07T12:56:51;3.20;99.90
20442;DHT22;10380;52.102;20.614;2022-12-07T13:04:58;3.20;99.90
20442;DHT22;10380;52.102;20.614;2022-12-07T13:36:57;2.90;99.90
20442;DHT22;10380;52.102;20.614;2022-12-07T13:39:27;2.90;99.90
20442;DHT22;10380;52.102;20.614;2022-12-07T13:41:58;2.90;99.90
20442;DHT22;10380;52.102;20.614;2022-12-07T13:44:27;2.80;99.90
20442;DHT22;10380;52.102;20.614;2022-12-07T13:49:31;2.70;99.90
20442;DHT22;10380;52.102;20.614;2022-12-07T13:52:18;2.70;99.90
20442;DHT22;10380;52.102;20.614;2022-12-07T13:54:47;2.70;99.90
20442;DHT22;10380;52.102;20.614;2022-12-07T13:57:18;2.70;99.90
20442;DHT22;10380;52.102;20.614;2022-12-07T13:59:46;2.60;99.90
20442;DHT22;10380;52.102;20.614;2022-12-07T14:02:19;2.70;99.90
20442;DHT22;10380;52.102;20.614;2022-12-07T14:04:50;2.70;99.90
20442;DHT22;10380;52.102;20.614;2022-12-07T14:07:26;2.70;99.90
20442;DHT22;10380;52.102;20.614;2022-12-07T14:10:01;2.60;99.90
20442;DHT22;10380;52.102;20.614;2022-12-07T14:12:29;2.60;99.90
20442;DHT22;10380;52.102;20.614;2022-12-07T14:14:57;2.50;99.90
20442;DHT22;10380;52.102;20.614;2022-12-07T14:17:26;2.50;99.90
20442;DHT22;10380;52.102;20.614;2022-12-07T14:19:59;2.40;99.90
20442;DHT22;10380;52.102;20.614;2022-12-07T14:22:37;2.40;99.90
20442;DHT22;10380;52.102;20.614;2022-12-07T14:27:48;2.30;99.90
20442;DHT22;10380;52.102;20.614;2022-12-07T14:30:16;2.20;99.90
20442;DHT22;10380;52.102;20.614;2022-12-07T14:32:44;2.20;99.90
20442;DHT22;10380;52.102;20.614;2022-12-07T14:35:17;2.20;99.90
20442;DHT22;10380;52.102;20.614;2022-12-07T14:37:47;2.20;99.90
20442;DHT22;10380;52.102;20.614;2022-12-07T14:40:21;2.20;99.90
20442;DHT22;10380;52.102;20.614;2022-12-07T14:42:51;2.20;99.90
20442;DHT22;10380;52.102;20.614;2022-12-07T14:45:21;2.20;99.90
20442;DHT22;10380;52.102;20.614;2022-12-07T14:47:48;2.10;99.90
20442;DHT22;10380;52.102;20.614;2022-12-07T14:50:38;2.10;99.90
20442;DHT22;10380;52.102;20.614;2022-12-07T14:53:30;2.10;99.90
20442;DHT22;10380;52.102;20.614;2022-12-07T14:55:58;2.10;99.90
20442;DHT22;10380;52.102;20.614;2022-12-07T14:58:25;2.10;99.90
20442;DHT22;10380;52.102;20.614;2022-12-07T15:00:53;2.10;99.90
20442;DHT22;10380;52.102;20.614;2022-12-07T15:03:20;2.10;99.90
20442;DHT22;10380;52.102;20.614;2022-12-07T15:05:49;3.30;99.90
20442;DHT22;10380;52.102;20.614;2022-12-07T15:08:16;2.10;99.90
20442;DHT22;10380;52.102;20.614;2022-12-07T15:10:43;2.10;99.90
20442;DHT22;10380;52.102;20.614;2022-12-07T15:13:12;2.00;99.90
20442;DHT22;10380;52.102;20.614;2022-12-07T15:15:58;2.00;99.90
20442;DHT22;10380;52.102;20.614;2022-12-07T15:18:26;2.00;99.90
20442;DHT22;10380;52.102;20.614;2022-12-07T15:20:53;2.00;99.90
20442;DHT22;10380;52.102;20.614;2022-12-07T15:23:20;2.00;99.90
20442;DHT22;10380;52.102;20.614;2022-12-07T15:25:48;2.80;99.90
20442;DHT22;10380;52.102;20.614;2022-12-07T15:28:15;2.10;99.90
20442;DHT22;10380;52.102;20.614;2022-12-07T15:30:43;2.10;99.90
20442;DHT22;10380;52.102;20.614;2022-12-07T15:33:12;2.10;99.90
20442;DHT22;10380;52.102;20.614;2022-12-07T15:35:40;2.20;99.90
20442;DHT22;10380;52.102;20.614;2022-12-07T15:38:08;2.20;99.90
20442;DHT22;10380;52.102;20.614;2022-12-07T15:40:35;2.20;99.90
20442;DHT22;10380;52.102;20.614;2022-12-07T15:43:03;2.20;99.90
20442;DHT22;10380;52.102;20.614;2022-12-07T15:45:31;2.30;99.90
20442;DHT22;10380;52.102;20.614;2022-12-07T15:47:58;2.30;99.90
20442;DHT22;10380;52.102;20.614;2022-12-07T15:50:45;2.30;99.90
20442;DHT22;10380;52.102;20.614;2022-12-07T15:53:12;2.30;99.90
20442;DHT22;10380;52.102;20.614;2022-12-07T15:55:40;2.30;99.90
20442;DHT22;10380;52.102;20.614;2022-12-07T15:58:07;2.30;99.90
20442;DHT22;10380;52.102;20.614;2022-12-07T16:00:34;2.30;99.90
20442;DHT22;10380;52.102;20.614;2022-12-07T16:03:01;2.40;99.90
20442;DHT22;10380;52.102;20.614;2022-12-07T16:05:29;2.30;99.90
20442;DHT22;10380;52.102;20.614;2022-12-07T16:07:56;2.30;99.90
20442;DHT22;10380;52.102;20.614;2022-12-07T16:10:25;2.30;99.90
20442;DHT22;10380;52.102;20.614;2022-12-07T16:12:52;2.30;99.90
20442;DHT22;10380;52.102;20.614;2022-12-07T16:15:21;2.30;99.90
20442;DHT22;10380;52.102;20.614;2022-12-07T16:17:51;2.30;99.90
20442;DHT22;10380;52.102;20.614;2022-12-07T16:20:18;2.30;99.90
20442;DHT22;10380;52.102;20.614;2022-12-07T16:22:51;2.30;99.90
20442;DHT22;10380;52.102;20.614;2022-12-07T16:25:18;2.30;99.90
20442;DHT22;10380;52.102;20.614;2022-12-07T16:27:45;2.30;99.90
20442;DHT22;10380;52.102;20.614;2022-12-07T16:30:14;2.30;99.90
20442;DHT22;10380;52.102;20.614;2022-12-07T16:32:43;2.30;99.90
20442;DHT22;10380;52.102;20.614;2022-12-07T16:35:10;2.30;99.90
20442;DHT22;10380;52.102;20.614;2022-12-07T16:37:38;2.30;99.90
20442;DHT22;10380;52.102;20.614;2022-12-07T16:40:05;2.40;99.90
20442;DHT22;10380;52.102;20.614;2022-12-07T16:42:34;2.40;99.90
20442;DHT22;10380;52.102;20.614;2022-12-07T16:45:01;2.40;99.90
20442;DHT22;10380;52.102;20.614;2022-12-07T16:47:28;2.40;99.90
20442;DHT22;10380;52.102;20.614;2022-12-07T16:49:55;2.40;99.90
20442;DHT22;10380;52.102;20.614;2022-12-07T16:52:22;2.40;99.90
20442;DHT22;10380;52.102;20.614;2022-12-07T16:54:49;2.50;99.90
20442;DHT22;10380;52.102;20.614;2022-12-07T16:57:17;3.20;99.90
20442;DHT22;10380;52.102;20.614;2022-12-07T16:59:50;2.50;99.90
20442;DHT22;10380;52.102;20.614;2022-12-07T17:02:17;2.50;99.90
20442;DHT22;10380;52.102;20.614;2022-12-07T17:04:44;2.60;99.90
20442;DHT22;10380;52.102;20.614;2022-12-07T17:07:11;2.50;99.90
20442;DHT22;10380;52.102;20.614;2022-12-07T17:09:38;2.60;99.90
20442;DHT22;10380;52.102;20.614;2022-12-07T17:12:05;2.50;99.90
20442;DHT22;10380;52.102;20.614;2022-12-07T17:14:33;2.60;99.90
20442;DHT22;10380;52.102;20.614;2022-12-07T17:17:18;2.50;99.90
20442;DHT22;10380;52.102;20.614;2022-12-07T17:19:45;2.60;99.90
20442;DHT22;10380;52.102;20.614;2022-12-07T17:22:12;2.60;99.90
20442;DHT22;10380;52.102;20.614;2022-12-07T17:24:39;2.60;99.90
20442;DHT22;10380;52.102;20.614;2022-12-07T17:27:06;2.70;99.90
20442;DHT22;10380;52.102;20.614;2022-12-07T17:29:33;2.70;99.90
20442;DHT22;10380;52.102;20.614;2022-12-07T17:32:00;2.70;99.90
20442;DHT22;10380;52.102;20.614;2022-12-07T17:34:27;2.70;99.90
20442;DHT22;10380;52.102;20.614;2022-12-07T17:36:54;3.00;99.90
20442;DHT22;10380;52.102;20.614;2022-12-07T17:39:21;3.30;99.90
20442;DHT22;10380;52.102;20.614;2022-12-07T17:41:48;2.70;99.90
20442;DHT22;10380;52.102;20.614;2022-12-07T17:44:34;2.70;99.90
20442;DHT22;10380;52.102;20.614;2022-12-07T17:47:01;2.70;99.90
20442;DHT22;10380;52.102;20.614;2022-12-07T17:49:29;2.70;99.90
20442;DHT22;10380;52.102;20.614;2022-12-07T17:51:57;2.70;99.90
20442;DHT22;10380;52.102;20.614;2022-12-07T17:54:43;2.80;99.90
20442;DHT22;10380;52.102;20.614;2022-12-07T17:57:09;2.70;99.90
20442;DHT22;10380;52.102;20.614;2022-12-07T17:59:37;2.80;99.90
20442;DHT22;10380;52.102;20.614;2022-12-07T18:02:04;2.80;99.90
20442;DHT22;10380;52.102;20.614;2022-12-07T18:04:31;2.80;99.90
20442;DHT22;10380;52.102;20.614;2022-12-07T18:06:58;2.80;99.90
20442;DHT22;10380;52.102;20.614;2022-12-07T18:09:25;2.80;99.90
20442;DHT22;10380;52.102;20.614;2022-12-07T18:11:53;2.80;99.90